createdAt,value
2022-12-22T00:00:32.114Z,77.50
2022-12-22T00:03:40.139Z,77.55
2022-12-22T00:06:28.978Z,77.51
2022-12-22T00:09:16.536Z,77.26
2022-12-22T00:12:05.494Z,77.31
2022-12-22T00:14:53.822Z,77.35
2022-12-22T00:17:47.995Z,77.38
2022-12-22T00:20:38.804Z,77.48
2022-12-22T00:23:28.662Z,77.70
2022-12-22T00:26:17.688Z,77.68
2022-12-22T00:29:06.471Z,77.78
2022-12-22T00:31:54.340Z,77.71
2022-12-22T00:34:41.976Z,77.72
2022-12-22T00:37:31.832Z,77.64
2022-12-22T00:40:20.649Z,77.67
2022-12-22T00:43:08.078Z,77.72
2022-12-22T00:45:57.115Z,77.56
2022-12-22T00:48:45.936Z,77.43
2022-12-22T00:51:33.902Z,77.58
2022-12-22T00:54:21.892Z,77.48
2022-12-22T00:57:09.358Z,77.40
2022-12-22T00:59:57.092Z,77.39
2022-12-22T01:02:44.718Z,77.44
2022-12-22T01:05:32.759Z,77.48
2022-12-22T01:08:20.735Z,77.53
2022-12-22T01:11:08.230Z,77.54
2022-12-22T01:13:55.805Z,77.42
2022-12-22T01:16:43.305Z,77.41
2022-12-22T01:19:30.789Z,77.35
2022-12-22T01:22:18.643Z,77.28
2022-12-22T01:25:06.139Z,77.16
2022-12-22T01:27:53.583Z,77.14
2022-12-22T01:30:40.981Z,77.02
2022-12-22T01:33:31.513Z,76.88
2022-12-22T01:36:18.948Z,76.96
2022-12-22T01:39:06.671Z,76.97
2022-12-22T01:41:54.216Z,76.91
2022-12-22T01:44:42.187Z,76.85
2022-12-22T01:47:51.825Z,76.83
2022-12-22T01:50:54.503Z,76.89
2022-12-22T01:53:45.978Z,76.86
2022-12-22T01:56:33.380Z,76.99
2022-12-22T01:59:23.316Z,76.99
2022-12-22T02:02:11.248Z,77.11
2022-12-22T02:05:05.940Z,77.12
2022-12-22T02:08:27.816Z,77.02
2022-12-22T02:11:58.466Z,77.21
2022-12-22T02:15:20.460Z,77.34
2022-12-22T02:18:38.106Z,77.44
2022-12-22T02:21:32.007Z,77.49
2022-12-22T02:24:44.178Z,77.58
2022-12-22T02:27:32.750Z,77.68
2022-12-22T02:30:26.646Z,77.73
2022-12-22T02:33:16.295Z,77.82
2022-12-22T02:36:23.425Z,77.82
2022-12-22T02:39:26.140Z,77.69
2022-12-22T02:42:47.371Z,77.65
2022-12-22T02:46:17.686Z,77.80
2022-12-22T02:49:46.140Z,78.00
2022-12-22T02:52:45.682Z,78.00
2022-12-22T02:55:36.049Z,77.99
2022-12-22T02:58:23.659Z,77.98
2022-12-22T03:01:11.581Z,77.88
2022-12-22T03:03:59.381Z,77.81
2022-12-22T03:06:47.185Z,77.86
2022-12-22T03:09:34.607Z,77.79
2022-12-22T03:12:22.392Z,77.75
2022-12-22T03:15:10.242Z,77.71
2022-12-22T03:17:57.893Z,77.82
2022-12-22T03:20:45.667Z,77.88
2022-12-22T03:23:33.141Z,77.96
2022-12-22T03:26:02.576Z,77.94
2022-12-22T03:28:31.596Z,77.84
2022-12-22T03:31:06.379Z,77.77
2022-12-22T03:33:35.512Z,77.99
2022-12-22T03:36:06.631Z,77.92
2022-12-22T03:38:36.046Z,77.88
2022-12-22T03:41:05.287Z,77.79
2022-12-22T03:43:52.847Z,77.82
2022-12-22T03:46:30.782Z,77.69
2022-12-22T03:49:11.544Z,77.70
2022-12-22T03:51:47.733Z,77.78
2022-12-22T03:54:24.634Z,77.74
2022-12-22T03:56:54.688Z,77.61
2022-12-22T03:59:23.868Z,77.48
2022-12-22T04:01:54.823Z,77.51
2022-12-22T04:04:26.740Z,77.49
2022-12-22T04:06:58.905Z,77.48
2022-12-22T04:09:29.411Z,77.50
2022-12-22T04:12:16.729Z,77.58
2022-12-22T04:14:45.775Z,77.53
2022-12-22T04:17:15.183Z,77.66
2022-12-22T04:19:44.358Z,77.73
2022-12-22T04:22:13.579Z,77.74
2022-12-22T04:24:42.719Z,77.67
2022-12-22T04:27:11.855Z,77.65
2022-12-22T04:29:40.834Z,77.68
2022-12-22T04:32:09.952Z,77.62
2022-12-22T04:34:39.105Z,77.62
2022-12-22T04:37:16.848Z,77.57
2022-12-22T04:39:46.535Z,77.55
2022-12-22T04:42:15.765Z,77.61
2022-12-22T04:44:44.896Z,77.70
2022-12-22T04:47:14.073Z,77.78
2022-12-22T04:49:43.201Z,77.81
2022-12-22T04:52:12.572Z,77.79
2022-12-22T04:54:41.664Z,77.89
2022-12-22T04:57:10.694Z,77.89
2022-12-22T04:59:39.777Z,77.89
2022-12-22T05:02:09.030Z,77.87
2022-12-22T05:04:38.635Z,77.71
2022-12-22T05:07:07.958Z,77.63
2022-12-22T05:09:37.124Z,77.78
2022-12-22T05:12:26.869Z,77.84
2022-12-22T05:14:56.139Z,77.87
2022-12-22T05:17:25.342Z,77.82
2022-12-22T05:19:54.853Z,77.78
2022-12-22T05:22:24.169Z,77.75
2022-12-22T05:24:53.225Z,77.77
2022-12-22T05:27:22.365Z,77.75
2022-12-22T05:29:51.387Z,77.72
2022-12-22T05:32:20.464Z,77.78
2022-12-22T05:34:49.491Z,77.77
2022-12-22T05:37:18.775Z,77.81
2022-12-22T05:39:47.800Z,77.73
2022-12-22T05:42:36.856Z,77.76
2022-12-22T05:45:20.580Z,77.73
2022-12-22T05:47:52.572Z,77.85
2022-12-22T05:50:24.197Z,77.74
2022-12-22T05:53:08.064Z,77.97
2022-12-22T05:55:38.089Z,78.04
2022-12-22T05:58:07.297Z,77.97
2022-12-22T06:00:36.431Z,77.83
2022-12-22T06:03:05.547Z,77.87
2022-12-22T06:05:37.540Z,77.88
2022-12-22T06:08:06.869Z,77.97
2022-12-22T06:10:36.046Z,77.91
2022-12-22T06:13:05.446Z,77.87
2022-12-22T06:15:34.856Z,77.79
2022-12-22T06:18:04.586Z,77.79
2022-12-22T06:20:33.787Z,77.74
2022-12-22T06:23:03.309Z,77.63
2022-12-22T06:25:32.595Z,77.52
2022-12-22T06:28:01.790Z,77.44
2022-12-22T06:30:33.609Z,77.36
2022-12-22T06:33:03.901Z,77.35
2022-12-22T06:35:33.400Z,77.43
2022-12-22T06:38:02.926Z,77.42
2022-12-22T06:40:32.740Z,77.55
2022-12-22T06:43:11.370Z,77.57
2022-12-22T06:45:43.962Z,77.56
2022-12-22T06:48:13.938Z,77.63
2022-12-22T06:50:43.439Z,77.68
2022-12-22T06:53:13.369Z,77.78
2022-12-22T06:55:42.833Z,77.71
2022-12-22T06:58:12.130Z,77.76
2022-12-22T07:00:41.385Z,77.83
2022-12-22T07:03:10.900Z,77.81
2022-12-22T07:05:40.285Z,77.81
2022-12-22T07:08:09.599Z,77.91
2022-12-22T07:10:57.140Z,77.82
2022-12-22T07:13:31.808Z,78.03
2022-12-22T07:16:03.159Z,77.95
2022-12-22T07:18:36.606Z,78.22
2022-12-22T07:21:10.346Z,78.12
2022-12-22T07:23:41.609Z,78.21
2022-12-22T07:26:12.608Z,78.35
2022-12-22T07:28:45.277Z,78.31
2022-12-22T07:31:21.241Z,78.37
2022-12-22T07:33:51.380Z,78.53
2022-12-22T07:36:21.582Z,78.66
2022-12-22T07:38:52.356Z,78.78
2022-12-22T07:41:40.194Z,78.82
2022-12-22T07:44:09.412Z,78.81
2022-12-22T07:46:40.183Z,78.78
2022-12-22T07:49:30.272Z,78.91
2022-12-22T07:52:00.679Z,78.76
2022-12-22T07:54:30.376Z,78.60
2022-12-22T07:56:59.724Z,78.35
2022-12-22T07:59:28.914Z,78.32
2022-12-22T08:01:58.168Z,78.37
2022-12-22T08:04:27.548Z,78.34
2022-12-22T08:06:57.615Z,78.36
2022-12-22T08:09:26.790Z,78.21
2022-12-22T08:11:55.920Z,78.13
2022-12-22T08:14:25.035Z,78.15
2022-12-22T08:16:54.317Z,78.23
2022-12-22T08:19:23.520Z,78.12
2022-12-22T08:21:53.468Z,78.15
2022-12-22T08:24:22.677Z,78.07
2022-12-22T08:26:56.893Z,78.14
2022-12-22T08:29:38.537Z,77.97
2022-12-22T08:32:07.739Z,77.82
2022-12-22T08:34:37.277Z,77.79
2022-12-22T08:37:17.563Z,77.83
2022-12-22T08:39:50.932Z,77.88
2022-12-22T08:42:22.753Z,77.95
2022-12-22T08:44:53.656Z,77.84
2022-12-22T08:47:23.594Z,77.89
2022-12-22T08:49:55.440Z,77.71
2022-12-22T08:52:24.693Z,77.64
2022-12-22T08:54:53.904Z,77.54
2022-12-22T08:57:23.161Z,77.54
2022-12-22T08:59:52.416Z,77.40
2022-12-22T09:02:22.401Z,77.36
2022-12-22T09:04:51.669Z,77.18
2022-12-22T09:07:20.717Z,76.99
2022-12-22T09:09:49.929Z,76.86
2022-12-22T09:12:19.097Z,76.65
2022-12-22T09:14:48.100Z,76.69
2022-12-22T09:17:17.176Z,76.80
2022-12-22T09:19:46.515Z,76.78
2022-12-22T09:22:15.677Z,76.69
2022-12-22T09:24:48.781Z,76.67
2022-12-22T09:27:17.849Z,76.62
2022-12-22T09:29:46.911Z,76.65
2022-12-22T09:32:16.154Z,76.58
2022-12-22T09:34:45.327Z,76.72
2022-12-22T09:37:17.634Z,76.78
2022-12-22T09:39:47.333Z,76.79
2022-12-22T09:42:21.615Z,76.84
2022-12-22T09:44:52.189Z,76.50
2022-12-22T09:47:38.939Z,76.46
2022-12-22T09:50:17.828Z,76.38
2022-12-22T09:52:51.398Z,76.04
2022-12-22T09:55:26.573Z,76.10
2022-12-22T09:57:58.808Z,76.25
2022-12-22T10:00:28.562Z,76.11
2022-12-22T10:03:25.238Z,75.93
2022-12-22T10:06:42.621Z,75.85
2022-12-22T10:12:21.349Z,75.79
2022-12-22T10:14:53.354Z,75.70
2022-12-22T10:18:35.581Z,75.65
2022-12-22T10:21:13.711Z,75.42
2022-12-22T10:23:48.881Z,75.44
2022-12-22T10:26:30.368Z,75.52
2022-12-22T10:29:06.115Z,75.29
2022-12-22T10:31:40.027Z,75.09
2022-12-22T10:34:16.505Z,75.21
2022-12-22T10:36:57.774Z,75.14
2022-12-22T10:39:35.960Z,74.89
2022-12-22T10:42:14.838Z,74.65
2022-12-22T10:44:50.215Z,74.60
2022-12-22T10:47:24.807Z,74.52
2022-12-22T10:52:32.297Z,73.91
2022-12-22T10:55:20.257Z,73.96
2022-12-22T10:57:50.822Z,73.77
2022-12-22T11:00:28.313Z,73.30
2022-12-22T11:03:01.350Z,72.93
2022-12-22T11:05:32.410Z,73.37
2022-12-22T11:08:15.051Z,73.03
2022-12-22T11:11:07.505Z,72.73
2022-12-22T11:14:05.899Z,72.87
2022-12-22T11:16:35.064Z,72.68
2022-12-22T11:19:14.266Z,72.82
2022-12-22T11:22:23.342Z,72.79
2022-12-22T11:26:03.522Z,72.56
2022-12-22T11:28:43.523Z,72.37
2022-12-22T11:31:38.416Z,72.49
2022-12-22T11:34:44.197Z,72.64
2022-12-22T11:37:31.710Z,72.27
2022-12-22T11:40:22.485Z,72.00
2022-12-22T11:43:03.319Z,71.76
2022-12-22T11:45:58.455Z,71.83
2022-12-22T11:49:11.838Z,71.97
2022-12-22T11:51:56.221Z,71.98
2022-12-22T11:54:50.050Z,71.89
2022-12-22T11:58:04.877Z,71.82
2022-12-22T12:01:15.310Z,71.95
2022-12-22T12:04:25.124Z,72.24
2022-12-22T12:07:04.714Z,72.24
2022-12-22T12:10:04.921Z,72.23
2022-12-22T12:12:59.131Z,72.12
2022-12-22T12:16:19.011Z,71.85
2022-12-22T12:19:27.064Z,71.95
2022-12-22T12:22:05.313Z,71.94
2022-12-22T12:25:04.397Z,71.94
2022-12-22T12:27:42.585Z,71.74
2022-12-22T12:33:30.295Z,71.10
2022-12-22T12:36:23.229Z,71.22
2022-12-22T12:39:28.517Z,71.35
2022-12-22T12:42:16.479Z,71.35
2022-12-22T12:44:46.640Z,71.17
2022-12-22T12:47:31.778Z,71.11
2022-12-22T12:50:02.557Z,71.22
2022-12-22T12:52:40.993Z,71.14
2022-12-22T12:55:39.599Z,70.93
2022-12-22T12:58:32.983Z,70.98
2022-12-22T13:01:33.409Z,71.01
2022-12-22T13:04:04.770Z,70.82
2022-12-22T13:06:55.133Z,70.91
2022-12-22T13:12:52.321Z,70.95
2022-12-22T13:15:45.111Z,70.79
2022-12-22T13:18:24.021Z,70.60
2022-12-22T13:24:37.067Z,70.73
2022-12-22T13:27:12.054Z,70.78
2022-12-22T13:29:45.814Z,70.74
2022-12-22T13:32:34.719Z,70.84
2022-12-22T13:35:47.123Z,70.93
2022-12-22T13:38:33.565Z,70.87
2022-12-22T13:41:27.105Z,70.90
2022-12-22T13:44:04.839Z,70.94
2022-12-22T13:46:36.920Z,71.10
2022-12-22T13:49:09.224Z,71.06
2022-12-22T13:51:38.876Z,71.41
2022-12-22T13:54:35.681Z,71.34
2022-12-22T13:57:18.126Z,71.30
2022-12-22T13:59:51.069Z,71.42
2022-12-22T14:02:22.355Z,71.44
2022-12-22T14:05:12.614Z,71.50
2022-12-22T14:08:05.379Z,71.63
2022-12-22T14:10:42.444Z,71.73
2022-12-22T14:13:16.951Z,71.70
2022-12-22T14:15:46.721Z,71.60
2022-12-22T14:18:26.618Z,71.78
2022-12-22T14:20:56.765Z,71.77
2022-12-22T14:23:34.553Z,71.70
2022-12-22T14:26:08.208Z,71.80
2022-12-22T14:28:54.058Z,71.82
2022-12-22T14:31:25.632Z,71.96
2022-12-22T14:34:05.488Z,72.00
2022-12-22T14:36:47.802Z,71.93
2022-12-22T14:39:32.860Z,72.05
2022-12-22T14:42:11.784Z,72.03
2022-12-22T14:44:47.307Z,72.18
2022-12-22T14:47:26.161Z,72.22
2022-12-22T14:50:14.750Z,72.17
2022-12-22T14:52:49.485Z,72.29
2022-12-22T14:55:26.147Z,72.27
2022-12-22T14:58:17.958Z,72.21
2022-12-22T15:01:09.065Z,72.21
2022-12-22T15:03:40.401Z,72.32
2022-12-22T15:06:35.984Z,72.42
2022-12-22T15:09:06.549Z,72.46
2022-12-22T15:11:40.920Z,72.36
2022-12-22T15:14:18.356Z,72.44
2022-12-22T15:16:47.898Z,72.44
2022-12-22T15:19:22.709Z,72.49
2022-12-22T15:21:52.702Z,72.49
2022-12-22T15:24:21.764Z,72.63
2022-12-22T15:26:51.367Z,72.73
2022-12-22T15:29:21.025Z,72.62
2022-12-22T15:31:50.302Z,72.56
2022-12-22T15:34:28.462Z,72.52
2022-12-22T15:36:57.678Z,72.62
2022-12-22T15:39:27.463Z,72.53
2022-12-22T15:41:56.606Z,72.52
2022-12-22T15:44:25.803Z,72.65
2022-12-22T15:46:58.299Z,72.73
2022-12-22T15:49:30.591Z,72.66
2022-12-22T15:52:04.786Z,72.63
2022-12-22T15:54:36.217Z,72.63
2022-12-22T15:57:05.420Z,72.59
2022-12-22T15:59:35.098Z,72.72
2022-12-22T16:02:13.640Z,72.81
2022-12-22T16:04:43.297Z,72.82
2022-12-22T16:07:12.727Z,72.90
2022-12-22T16:09:45.899Z,72.99
2022-12-22T16:12:18.960Z,72.97
2022-12-22T16:14:56.470Z,72.91
2022-12-22T16:17:28.764Z,72.74
2022-12-22T16:19:58.679Z,72.69
2022-12-22T16:22:34.258Z,72.62
2022-12-22T16:25:08.034Z,72.74
2022-12-22T16:27:37.123Z,72.84
2022-12-22T16:30:08.061Z,72.79
2022-12-22T16:32:37.158Z,72.91
2022-12-22T16:35:09.017Z,72.77
2022-12-22T16:37:38.918Z,72.75
2022-12-22T16:40:10.154Z,72.60
2022-12-22T16:45:35.306Z,72.77
2022-12-22T16:48:28.743Z,72.86
2022-12-22T16:50:57.847Z,72.82
2022-12-22T16:53:28.724Z,72.77
2022-12-22T16:56:00.405Z,72.74
2022-12-22T16:58:29.458Z,72.81
2022-12-22T17:00:58.672Z,72.77
2022-12-22T17:03:28.854Z,72.73
2022-12-22T17:06:03.411Z,72.76
2022-12-22T17:08:39.323Z,72.74
2022-12-22T17:11:16.490Z,72.88
2022-12-22T17:13:45.731Z,72.80
2022-12-22T17:16:21.677Z,72.83
2022-12-22T17:18:51.050Z,73.02
2022-12-22T17:21:21.223Z,73.06
2022-12-22T17:23:54.530Z,73.03
2022-12-22T17:26:26.298Z,72.98
2022-12-22T17:28:56.065Z,72.98
2022-12-22T17:31:26.999Z,73.09
2022-12-22T17:33:58.076Z,73.13
2022-12-22T17:36:37.580Z,73.20
2022-12-22T17:39:13.967Z,73.35
2022-12-22T17:41:43.474Z,73.42
2022-12-22T17:44:21.292Z,73.47
2022-12-22T17:46:50.779Z,73.69
2022-12-22T17:49:22.671Z,73.63
2022-12-22T17:51:51.966Z,73.64
2022-12-22T17:54:26.295Z,73.98
2022-12-22T17:57:04.540Z,73.87
2022-12-22T17:59:33.780Z,73.94
2022-12-22T18:02:03.054Z,74.03
2022-12-22T18:04:33.548Z,74.01
2022-12-22T18:07:03.509Z,74.08
2022-12-22T18:09:33.029Z,74.20
2022-12-22T18:12:03.531Z,74.23
2022-12-22T18:14:32.636Z,74.27
2022-12-22T18:17:01.729Z,74.38
2022-12-22T18:19:31.540Z,74.43
2022-12-22T18:22:00.770Z,74.40
2022-12-22T18:24:30.049Z,74.40
2022-12-22T18:27:00.661Z,74.31
2022-12-22T18:29:30.134Z,74.28
2022-12-22T18:31:59.533Z,74.39
2022-12-22T18:34:29.029Z,74.34
2022-12-22T18:36:58.087Z,74.54
2022-12-22T18:39:27.423Z,74.42
2022-12-22T18:41:58.193Z,74.36
2022-12-22T18:44:27.765Z,74.32
2022-12-22T18:46:57.128Z,74.38
2022-12-22T18:49:30.285Z,74.35
2022-12-22T18:52:02.056Z,74.55
2022-12-22T18:54:38.198Z,74.58
2022-12-22T18:57:15.028Z,74.58
2022-12-22T18:59:48.981Z,74.43
2022-12-22T19:02:33.120Z,74.37
2022-12-22T19:05:03.329Z,74.40
2022-12-22T19:07:34.769Z,74.45
2022-12-22T19:10:04.720Z,74.46
2022-12-22T19:12:34.505Z,74.49
2022-12-22T19:15:16.300Z,74.41
2022-12-22T19:17:52.230Z,74.36
2022-12-22T19:20:29.119Z,74.20
2022-12-22T19:23:05.141Z,74.39
2022-12-22T19:25:48.947Z,74.34
2022-12-22T19:28:32.120Z,74.21
2022-12-22T19:31:05.016Z,74.25
2022-12-22T19:33:48.187Z,74.19
2022-12-22T19:36:30.241Z,74.34
2022-12-22T19:39:05.757Z,74.15
2022-12-22T19:41:48.183Z,74.18
2022-12-22T19:44:28.842Z,74.35
2022-12-22T19:47:02.173Z,74.43
2022-12-22T19:49:33.728Z,74.50
2022-12-22T19:52:03.311Z,74.62
2022-12-22T19:54:38.603Z,74.58
2022-12-22T19:57:16.236Z,74.37
2022-12-22T19:59:54.595Z,74.49
2022-12-22T20:02:32.813Z,74.50
2022-12-22T20:05:02.672Z,74.59
2022-12-22T20:07:37.162Z,74.75
2022-12-22T20:10:11.714Z,74.81
2022-12-22T20:12:45.493Z,74.80
2022-12-22T20:15:37.303Z,75.00
2022-12-22T20:18:21.048Z,75.06
2022-12-22T20:21:43.968Z,75.20
2022-12-22T20:24:23.174Z,75.20
2022-12-22T20:26:54.840Z,75.14
2022-12-22T20:29:25.538Z,75.33
2022-12-22T20:31:55.562Z,75.54
2022-12-22T20:34:27.069Z,75.51
2022-12-22T20:36:58.119Z,75.68
2022-12-22T20:39:31.105Z,75.74
2022-12-22T20:42:03.175Z,75.86
2022-12-22T20:44:38.077Z,75.94
2022-12-22T20:47:28.582Z,76.11
2022-12-22T20:49:58.651Z,76.23
2022-12-22T20:52:29.471Z,76.32
2022-12-22T20:55:00.180Z,76.46
2022-12-22T20:57:29.787Z,76.49
2022-12-22T20:59:59.179Z,76.49
2022-12-22T21:02:29.257Z,76.64
2022-12-22T21:04:58.793Z,76.65
2022-12-22T21:07:27.987Z,76.61
2022-12-22T21:09:57.050Z,76.70
2022-12-22T21:12:26.488Z,76.82
2022-12-22T21:14:59.487Z,76.83
2022-12-22T21:17:34.687Z,76.76
2022-12-22T21:20:30.653Z,76.61
2022-12-22T21:23:00.848Z,76.85
2022-12-22T21:25:30.892Z,76.80
2022-12-22T21:28:10.026Z,76.74
2022-12-22T21:30:41.335Z,76.88
2022-12-22T21:33:11.377Z,76.86
2022-12-22T21:35:48.023Z,76.76
2022-12-22T21:38:26.211Z,76.80
2022-12-22T21:40:55.523Z,76.93
2022-12-22T21:43:25.929Z,76.97
2022-12-22T21:45:55.898Z,76.99
2022-12-22T21:48:25.309Z,77.02
2022-12-22T21:50:54.418Z,77.09
2022-12-22T21:53:23.531Z,77.18
2022-12-22T21:55:52.746Z,77.30
2022-12-22T21:58:24.941Z,77.36
2022-12-22T22:00:54.191Z,77.38
2022-12-22T22:03:23.448Z,77.45
2022-12-22T22:05:52.745Z,77.31
2022-12-22T22:08:21.950Z,77.39
2022-12-22T22:10:51.418Z,77.49
2022-12-22T22:13:20.744Z,77.55
2022-12-22T22:15:53.243Z,77.70
2022-12-22T22:18:22.478Z,77.70
2022-12-22T22:20:51.557Z,77.74
2022-12-22T22:23:23.991Z,77.87
2022-12-22T22:25:59.757Z,77.85
2022-12-22T22:28:32.572Z,77.82
2022-12-22T22:31:14.113Z,77.88
2022-12-22T22:33:43.436Z,77.98
2022-12-22T22:36:12.883Z,77.96
2022-12-22T22:38:42.567Z,78.06
2022-12-22T22:41:12.262Z,78.06
2022-12-22T22:43:41.807Z,78.02
2022-12-22T22:46:14.414Z,78.03
2022-12-22T22:48:44.205Z,78.31
2022-12-22T22:51:13.977Z,78.39
2022-12-22T22:53:46.083Z,78.24
2022-12-22T22:56:15.445Z,78.21
2022-12-22T22:58:45.225Z,78.43
2022-12-22T23:01:15.568Z,78.43
2022-12-22T23:03:48.394Z,78.39
2022-12-22T23:06:18.355Z,78.35
2022-12-22T23:08:52.150Z,78.45
2022-12-22T23:11:21.683Z,78.42
2022-12-22T23:13:54.859Z,78.35
2022-12-22T23:16:25.571Z,78.28
2022-12-22T23:18:58.693Z,78.23
2022-12-22T23:21:30.698Z,78.23
2022-12-22T23:24:00.311Z,78.30
2022-12-22T23:26:29.508Z,78.20
2022-12-22T23:29:03.316Z,78.21
2022-12-22T23:31:35.054Z,78.28
2022-12-22T23:34:06.977Z,78.15
2022-12-22T23:36:36.517Z,78.10
2022-12-22T23:39:06.238Z,78.09
2022-12-22T23:41:36.268Z,78.01
2022-12-22T23:44:05.888Z,77.87
2022-12-22T23:46:35.659Z,77.95
2022-12-22T23:49:05.547Z,77.81
2022-12-22T23:51:38.125Z,77.81
2022-12-22T23:54:07.667Z,77.76
2022-12-22T23:56:36.861Z,77.51
2022-12-22T23:59:06.207Z,77.38
